createdAt,value
2019-01-09T00:00:51.143Z,18.80
2019-01-09T00:03:19.994Z,18.70
2019-01-09T00:05:49.227Z,18.70
2019-01-09T00:08:18.482Z,18.70
2019-01-09T00:10:47.960Z,18.60
2019-01-09T00:13:17.169Z,18.70
2019-01-09T00:15:46.550Z,19.50
2019-01-09T00:18:15.877Z,18.80
2019-01-09T00:20:45.219Z,18.20
2019-01-09T00:23:14.450Z,18.60
2019-01-09T00:25:43.736Z,18.60
2019-01-09T00:28:13.004Z,18.10
2019-01-09T00:30:42.031Z,19.30
2019-01-09T00:33:11.141Z,18.60
2019-01-09T00:35:40.358Z,18.90
2019-01-09T00:38:09.773Z,18.80
2019-01-09T00:40:38.890Z,18.80
2019-01-09T00:43:08.281Z,18.50
2019-01-09T00:45:37.441Z,19.00
2019-01-09T00:48:06.721Z,18.80
2019-01-09T00:50:35.668Z,19.60
2019-01-09T00:53:05.013Z,19.20
2019-01-09T00:55:34.435Z,19.00
2019-01-09T00:58:03.832Z,19.10
2019-01-09T01:00:33.224Z,19.50
2019-01-09T01:03:25.100Z,18.50
2019-01-09T01:06:21.222Z,19.20
2019-01-09T01:09:10.130Z,19.00
2019-01-09T01:11:57.718Z,18.60
2019-01-09T01:15:04.878Z,19.10
2019-01-09T01:17:37.285Z,18.70
2019-01-09T01:20:21.557Z,18.70
2019-01-09T01:23:27.017Z,18.80
2019-01-09T01:26:01.947Z,19.20
2019-01-09T01:28:52.514Z,19.40
2019-01-09T01:31:50.008Z,19.00
2019-01-09T01:34:36.733Z,19.50
2019-01-09T01:37:34.339Z,19.00
2019-01-09T01:40:12.313Z,18.90
2019-01-09T01:43:14.879Z,18.90
2019-01-09T01:46:06.683Z,19.90
2019-01-09T01:48:44.715Z,18.60
2019-01-09T01:51:23.582Z,19.40
2019-01-09T01:53:55.973Z,19.30
2019-01-09T01:56:56.922Z,18.70
2019-01-09T01:59:32.069Z,18.80
2019-01-09T02:02:13.302Z,18.70
2019-01-09T02:04:57.120Z,19.00
2019-01-09T02:07:45.920Z,19.00
2019-01-09T02:10:38.901Z,19.00
2019-01-09T02:13:22.397Z,19.30
2019-01-09T02:16:13.292Z,18.80
2019-01-09T02:18:45.102Z,18.50
2019-01-09T02:21:17.033Z,18.40
2019-01-09T02:24:06.931Z,17.20
2019-01-09T02:26:38.925Z,18.60
2019-01-09T02:29:22.918Z,18.20
2019-01-09T02:31:56.089Z,18.30
2019-01-09T02:34:26.879Z,18.10
2019-01-09T02:36:56.060Z,18.70
2019-01-09T02:39:25.423Z,18.40
2019-01-09T02:41:55.072Z,18.40
2019-01-09T02:44:32.148Z,18.40
2019-01-09T02:46:55.883Z,17.80
2019-01-09T02:49:25.387Z,18.10
2019-01-09T02:51:54.621Z,18.10
2019-01-09T02:54:23.530Z,18.30
2019-01-09T02:56:54.262Z,18.60
2019-01-09T02:59:23.535Z,18.40
2019-01-09T03:01:53.301Z,18.50
2019-01-09T03:04:21.832Z,18.30
2019-01-09T03:06:51.359Z,18.40
2019-01-09T03:09:20.709Z,18.10
2019-01-09T03:11:50.964Z,18.40
2019-01-09T03:14:20.254Z,18.10
2019-01-09T03:16:50.151Z,19.00
2019-01-09T03:19:19.490Z,17.80
2019-01-09T03:21:48.590Z,17.90
2019-01-09T03:24:18.016Z,17.90
2019-01-09T03:26:47.385Z,18.30
2019-01-09T03:29:16.915Z,18.00
2019-01-09T03:31:46.038Z,18.70
2019-01-09T03:34:15.178Z,17.90
2019-01-09T03:36:44.539Z,17.80
2019-01-09T03:39:13.921Z,18.40
2019-01-09T03:41:44.369Z,18.00
2019-01-09T03:44:13.483Z,18.00
2019-01-09T03:46:42.433Z,18.10
2019-01-09T03:49:11.915Z,17.90
2019-01-09T03:51:41.205Z,18.50
2019-01-09T03:54:10.622Z,18.40
2019-01-09T03:56:40.695Z,17.80
2019-01-09T03:59:10.132Z,18.00
2019-01-09T04:01:39.373Z,17.80
2019-01-09T04:04:08.446Z,17.90
2019-01-09T04:06:41.938Z,17.60
2019-01-09T04:09:10.204Z,17.60
2019-01-09T04:11:38.890Z,17.90
2019-01-09T04:14:08.333Z,17.60
2019-01-09T04:16:37.901Z,17.60
2019-01-09T04:19:06.553Z,18.70
2019-01-09T04:21:36.113Z,17.50
2019-01-09T04:24:04.831Z,17.80
2019-01-09T04:26:33.454Z,17.90
2019-01-09T04:29:02.066Z,17.50
2019-01-09T04:31:30.757Z,17.90
2019-01-09T04:34:00.318Z,17.30
2019-01-09T04:36:29.150Z,17.70
2019-01-09T04:38:59.119Z,17.40
2019-01-09T04:41:28.060Z,17.10
2019-01-09T04:43:57.509Z,17.30
2019-01-09T04:46:27.045Z,17.30
2019-01-09T04:48:56.070Z,17.40
2019-01-09T04:51:25.199Z,17.10
2019-01-09T04:53:54.567Z,17.40
2019-01-09T04:56:23.206Z,17.40
2019-01-09T04:58:51.829Z,17.50
2019-01-09T05:01:20.729Z,17.40
2019-01-09T05:03:49.372Z,17.50
2019-01-09T05:06:18.654Z,17.20
2019-01-09T05:08:48.238Z,17.60
2019-01-09T05:11:16.792Z,17.10
2019-01-09T05:13:45.603Z,17.00
2019-01-09T05:16:14.264Z,17.50
2019-01-09T05:18:44.267Z,17.80
2019-01-09T05:21:13.314Z,17.20
2019-01-09T05:23:42.534Z,17.10
2019-01-09T05:26:11.777Z,17.50
2019-01-09T05:28:40.495Z,17.30
2019-01-09T05:31:09.166Z,17.60
2019-01-09T05:33:38.276Z,19.20
2019-01-09T05:36:07.464Z,19.30
2019-01-09T05:38:36.702Z,18.00
2019-01-09T05:41:05.515Z,18.60
2019-01-09T05:43:35.070Z,17.90
2019-01-09T05:46:03.825Z,17.80
2019-01-09T05:48:32.685Z,17.20
2019-01-09T05:51:02.602Z,17.40
2019-01-09T05:53:31.259Z,17.70
2019-01-09T05:56:00.008Z,16.90
2019-01-09T05:58:28.676Z,17.80
2019-01-09T06:00:57.323Z,17.70
2019-01-09T06:03:25.994Z,17.50
2019-01-09T06:05:55.403Z,17.40
2019-01-09T06:08:24.453Z,17.00
2019-01-09T06:10:53.829Z,17.30
2019-01-09T06:13:23.065Z,16.90
2019-01-09T06:15:52.490Z,17.50
2019-01-09T06:18:23.133Z,17.00
2019-01-09T06:20:52.546Z,17.50
2019-01-09T06:23:21.807Z,17.30
2019-01-09T06:25:50.649Z,17.60
2019-01-09T06:28:20.716Z,17.50
2019-01-09T06:30:49.752Z,17.00
2019-01-09T06:33:19.015Z,17.10
2019-01-09T06:35:48.354Z,17.10
2019-01-09T06:38:17.534Z,17.10
2019-01-09T06:40:46.135Z,17.20
2019-01-09T06:43:14.725Z,17.00
2019-01-09T06:45:43.350Z,17.30
2019-01-09T06:48:11.900Z,17.80
2019-01-09T06:50:40.571Z,17.60
2019-01-09T06:53:10.217Z,17.80
2019-01-09T06:55:39.402Z,17.80
2019-01-09T06:58:09.559Z,18.80
2019-01-09T07:00:39.863Z,18.20
2019-01-09T07:03:09.156Z,17.80
2019-01-09T07:05:38.247Z,18.70
2019-01-09T07:08:07.564Z,19.30
2019-01-09T07:10:36.852Z,18.70
2019-01-09T07:13:06.088Z,19.10
2019-01-09T07:15:35.141Z,18.70
2019-01-09T07:18:04.744Z,19.20
2019-01-09T07:20:33.445Z,18.90
2019-01-09T07:23:02.714Z,19.30
2019-01-09T07:25:31.384Z,18.90
2019-01-09T07:28:00.076Z,18.60
2019-01-09T07:30:29.369Z,19.00
2019-01-09T07:32:58.597Z,19.00
2019-01-09T07:35:27.907Z,18.90
2019-01-09T07:37:57.218Z,18.90
2019-01-09T07:40:26.397Z,19.20
2019-01-09T07:42:56.852Z,19.10
2019-01-09T07:45:26.074Z,19.10
2019-01-09T07:47:55.267Z,19.20
2019-01-09T07:50:24.529Z,19.30
2019-01-09T07:52:53.717Z,19.10
2019-01-09T07:55:23.288Z,19.70
2019-01-09T07:57:52.642Z,20.00
2019-01-09T08:00:22.343Z,20.00
2019-01-09T08:02:51.734Z,20.50
2019-01-09T08:05:21.291Z,20.30
2019-01-09T08:07:54.122Z,20.70
2019-01-09T08:10:21.443Z,20.40
2019-01-09T08:12:50.698Z,20.30
2019-01-09T08:15:20.172Z,20.00
2019-01-09T08:17:49.290Z,20.60
2019-01-09T08:20:18.807Z,20.20
2019-01-09T08:22:48.057Z,20.30
2019-01-09T08:25:17.259Z,20.40
2019-01-09T08:27:46.793Z,20.40
2019-01-09T08:30:17.083Z,20.20
2019-01-09T08:32:46.173Z,20.20
2019-01-09T08:35:15.500Z,20.60
2019-01-09T08:37:44.652Z,20.20
2019-01-09T08:40:14.716Z,20.50
2019-01-09T08:42:44.020Z,19.50
2019-01-09T08:45:13.089Z,19.70
2019-01-09T08:47:41.833Z,19.80
2019-01-09T08:50:11.040Z,19.90
2019-01-09T08:52:40.564Z,20.00
2019-01-09T08:55:10.070Z,20.10
2019-01-09T08:57:39.414Z,19.80
2019-01-09T09:00:11.354Z,23.00
2019-01-09T09:02:40.791Z,25.10
2019-01-09T09:05:11.125Z,24.10
2019-01-09T09:07:41.041Z,25.60
2019-01-09T09:10:11.736Z,24.60
2019-01-09T09:12:41.384Z,23.50
2019-01-09T09:15:13.153Z,23.50
2019-01-09T09:17:42.311Z,22.80
2019-01-09T09:20:13.201Z,23.60
2019-01-09T09:22:42.731Z,23.90
2019-01-09T09:25:12.173Z,22.90
2019-01-09T09:27:41.657Z,23.00
2019-01-09T09:30:16.646Z,22.30
2019-01-09T09:32:45.510Z,22.30
2019-01-09T09:35:14.846Z,22.20
2019-01-09T09:37:44.090Z,22.50
2019-01-09T09:40:16.005Z,23.10
2019-01-09T09:42:45.321Z,22.50
2019-01-09T09:45:14.975Z,22.80
2019-01-09T09:47:44.217Z,22.80
2019-01-09T09:50:15.410Z,23.30
2019-01-09T09:52:44.955Z,23.10
2019-01-09T09:55:14.612Z,22.90
2019-01-09T09:57:44.118Z,23.30
2019-01-09T10:00:18.794Z,23.50
2019-01-09T10:02:48.045Z,23.00
2019-01-09T10:05:17.370Z,23.10
2019-01-09T10:07:46.584Z,22.90
2019-01-09T10:10:16.678Z,22.50
2019-01-09T10:12:46.492Z,22.90
2019-01-09T10:15:16.995Z,22.90
2019-01-09T10:17:45.851Z,22.30
2019-01-09T10:20:18.975Z,22.40
2019-01-09T10:22:49.500Z,21.60
2019-01-09T10:25:19.016Z,21.80
2019-01-09T10:27:48.506Z,21.40
2019-01-09T10:30:22.107Z,21.20
2019-01-09T10:32:51.340Z,21.00
2019-01-09T10:35:20.429Z,20.90
2019-01-09T10:37:49.912Z,20.80
2019-01-09T10:40:20.736Z,21.10
2019-01-09T10:42:49.886Z,20.80
2019-01-09T10:45:20.574Z,20.80
2019-01-09T10:47:49.818Z,21.20
2019-01-09T10:50:19.208Z,21.00
2019-01-09T10:52:48.975Z,20.50
2019-01-09T10:55:19.393Z,20.40
2019-01-09T10:57:48.727Z,20.20
2019-01-09T11:00:23.035Z,20.30
2019-01-09T11:02:51.792Z,21.10
2019-01-09T11:05:21.060Z,21.50
2019-01-09T11:07:49.748Z,21.40
2019-01-09T11:10:20.921Z,21.30
2019-01-09T11:12:50.263Z,21.10
2019-01-09T11:15:20.460Z,21.10
2019-01-09T11:17:50.611Z,21.40
2019-01-09T11:20:21.129Z,21.70
2019-01-09T11:22:50.296Z,21.60
2019-01-09T11:25:24.812Z,22.60
2019-01-09T11:27:54.216Z,22.50
2019-01-09T11:30:23.197Z,23.60
2019-01-09T11:32:53.985Z,22.90
2019-01-09T11:35:24.241Z,22.20
2019-01-09T11:37:53.439Z,22.70
2019-01-09T11:40:22.823Z,22.30
2019-01-09T11:42:52.468Z,22.00
2019-01-09T11:45:21.900Z,21.70
2019-01-09T11:47:51.331Z,21.80
2019-01-09T11:50:20.108Z,21.30
2019-01-09T11:52:48.827Z,22.60
2019-01-09T11:55:18.159Z,25.50
2019-01-09T11:57:47.754Z,27.70
2019-01-09T12:00:22.062Z,27.80
2019-01-09T12:02:51.242Z,30.10
2019-01-09T12:05:21.245Z,33.30
2019-01-09T12:07:50.452Z,32.90
2019-01-09T12:10:29.801Z,35.70
2019-01-09T12:12:54.511Z,34.50
2019-01-09T12:15:23.653Z,37.00
2019-01-09T12:17:52.985Z,36.90
2019-01-09T12:20:21.982Z,36.60
2019-01-09T12:22:50.980Z,34.60
2019-01-09T12:25:20.179Z,33.60
2019-01-09T12:27:49.480Z,34.50
2019-01-09T12:30:23.777Z,35.30
2019-01-09T12:32:52.931Z,34.00
2019-01-09T12:35:21.540Z,33.90
2019-01-09T12:37:50.511Z,34.20
2019-01-09T12:40:19.767Z,35.00
2019-01-09T12:42:49.270Z,33.40
2019-01-09T12:45:18.800Z,34.90
2019-01-09T12:47:47.907Z,37.70
2019-01-09T12:50:22.219Z,38.90
2019-01-09T12:52:52.654Z,39.00
2019-01-09T12:55:22.292Z,37.80
2019-01-09T12:57:51.816Z,36.90
2019-01-09T13:00:23.822Z,37.30
2019-01-09T13:02:53.230Z,36.00
2019-01-09T13:05:22.577Z,34.60
2019-01-09T13:07:51.741Z,33.70
2019-01-09T13:10:22.026Z,33.50
2019-01-09T13:12:52.758Z,32.00
2019-01-09T13:15:22.753Z,32.50
2019-01-09T13:17:52.190Z,32.40
2019-01-09T13:20:21.436Z,30.60
2019-01-09T13:22:50.759Z,31.70
2019-01-09T13:25:19.963Z,29.90
2019-01-09T13:27:50.075Z,29.10
2019-01-09T13:30:20.781Z,28.30
2019-01-09T13:32:50.319Z,27.40
2019-01-09T13:35:19.626Z,28.80
2019-01-09T13:37:49.028Z,28.10
2019-01-09T13:40:19.386Z,27.30
2019-01-09T13:42:48.681Z,28.10
2019-01-09T13:45:21.395Z,28.10
2019-01-09T13:47:51.028Z,27.20
2019-01-09T13:50:20.549Z,27.40
2019-01-09T13:52:49.724Z,26.90
2019-01-09T13:55:19.308Z,27.00
2019-01-09T13:57:48.119Z,27.30
2019-01-09T14:00:19.313Z,26.40
2019-01-09T14:02:48.152Z,26.70
2019-01-09T14:05:17.471Z,27.70
2019-01-09T14:07:46.755Z,27.30
2019-01-09T14:10:21.445Z,26.80
2019-01-09T14:12:50.466Z,26.80
2019-01-09T14:15:20.975Z,26.00
2019-01-09T14:17:51.393Z,25.80
2019-01-09T14:20:20.619Z,25.80
2019-01-09T14:22:50.228Z,25.70
2019-01-09T14:25:20.433Z,25.70
2019-01-09T14:27:49.680Z,26.40
2019-01-09T14:30:23.141Z,25.80
2019-01-09T14:32:52.857Z,25.90
2019-01-09T14:35:22.281Z,26.30
2019-01-09T14:37:52.675Z,26.30
2019-01-09T14:40:21.865Z,26.80
2019-01-09T14:42:51.648Z,26.50
2019-01-09T14:45:20.781Z,26.00
2019-01-09T14:47:50.424Z,25.20
2019-01-09T14:50:21.023Z,25.40
2019-01-09T14:52:50.631Z,25.10
2019-01-09T14:55:19.923Z,25.80
2019-01-09T14:57:49.350Z,24.50
2019-01-09T15:00:28.154Z,25.00
2019-01-09T15:02:57.369Z,24.70
2019-01-09T15:05:26.540Z,24.80
2019-01-09T15:07:56.794Z,24.50
2019-01-09T15:10:27.664Z,24.70
2019-01-09T15:12:57.511Z,24.40
2019-01-09T15:15:26.602Z,24.10
2019-01-09T15:17:55.822Z,23.60
2019-01-09T15:20:25.219Z,23.70
2019-01-09T15:22:54.565Z,23.80
2019-01-09T15:25:23.324Z,23.70
2019-01-09T15:27:52.996Z,23.80
2019-01-09T15:30:24.770Z,23.60
2019-01-09T15:32:54.030Z,23.70
2019-01-09T15:35:22.882Z,23.40
2019-01-09T15:37:52.200Z,24.00
2019-01-09T15:40:24.222Z,23.40
2019-01-09T15:42:53.095Z,23.90
2019-01-09T15:45:23.244Z,23.70
2019-01-09T15:47:52.500Z,23.80
2019-01-09T15:50:23.144Z,24.10
2019-01-09T15:52:52.183Z,24.00
2019-01-09T15:55:21.133Z,24.20
2019-01-09T15:57:52.178Z,24.20
2019-01-09T16:00:29.605Z,25.00
2019-01-09T16:02:58.756Z,24.60
2019-01-09T16:05:27.912Z,24.70
2019-01-09T16:07:57.141Z,25.00
2019-01-09T16:10:25.912Z,23.90
2019-01-09T16:12:54.671Z,23.80
2019-01-09T16:15:23.440Z,23.80
2019-01-09T16:17:52.313Z,23.90
2019-01-09T16:20:23.592Z,23.60
2019-01-09T16:22:52.751Z,22.90
2019-01-09T16:25:21.836Z,22.90
2019-01-09T16:27:50.738Z,22.70
2019-01-09T16:30:33.789Z,22.80
2019-01-09T16:32:57.241Z,24.10
2019-01-09T16:35:26.932Z,25.10
2019-01-09T16:37:56.096Z,23.90
2019-01-09T16:40:25.089Z,23.40
2019-01-09T16:42:53.924Z,23.00
2019-01-09T16:45:23.092Z,22.50
2019-01-09T16:47:52.239Z,22.60
2019-01-09T16:50:22.941Z,22.80
2019-01-09T16:52:51.744Z,22.30
2019-01-09T16:55:20.371Z,22.00
2019-01-09T16:57:50.058Z,21.90
2019-01-09T17:00:27.232Z,21.50
2019-01-09T17:02:56.397Z,22.90
2019-01-09T17:05:25.389Z,23.40
2019-01-09T17:07:54.985Z,25.40
2019-01-09T17:10:31.935Z,25.90
2019-01-09T17:12:54.805Z,22.60
2019-01-09T17:15:23.659Z,23.00
2019-01-09T17:17:52.815Z,22.80
2019-01-09T17:20:26.445Z,24.10
2019-01-09T17:22:55.479Z,24.40
2019-01-09T17:25:24.720Z,29.20
2019-01-09T17:27:54.082Z,31.10
2019-01-09T17:30:27.454Z,31.60
2019-01-09T17:32:56.645Z,37.40
2019-01-09T17:35:25.792Z,39.10
2019-01-09T17:37:54.932Z,42.70
2019-01-09T17:40:24.709Z,43.90
2019-01-09T17:42:53.827Z,43.00
2019-01-09T17:45:22.685Z,42.30
2019-01-09T17:47:51.490Z,41.10
2019-01-09T17:50:23.443Z,39.10
2019-01-09T17:52:53.699Z,39.70
2019-01-09T17:55:22.999Z,40.50
2019-01-09T17:57:51.737Z,42.50
2019-01-09T18:00:23.673Z,44.20
2019-01-09T18:02:52.793Z,45.80
2019-01-09T18:05:21.896Z,44.00
2019-01-09T18:07:52.126Z,47.50
2019-01-09T18:10:23.685Z,49.60
2019-01-09T18:12:52.849Z,50.10
2019-01-09T18:15:24.603Z,51.70
2019-01-09T18:17:55.145Z,48.90
2019-01-09T18:20:24.413Z,50.10
2019-01-09T18:22:53.340Z,48.60
2019-01-09T18:25:24.702Z,49.60
2019-01-09T18:27:53.332Z,48.90
2019-01-09T18:30:37.633Z,48.50
2019-01-09T18:33:12.644Z,50.00
2019-01-09T18:35:47.629Z,52.40
2019-01-09T18:38:31.191Z,51.60
2019-01-09T18:41:25.079Z,53.40
2019-01-09T18:44:00.060Z,56.60
2019-01-09T18:46:47.507Z,58.90
2019-01-09T18:49:25.253Z,60.00
2019-01-09T18:51:57.404Z,60.00
2019-01-09T18:54:26.572Z,61.50
2019-01-09T18:56:56.733Z,63.60
2019-01-09T18:59:25.771Z,63.20
2019-01-09T19:01:54.806Z,63.70
2019-01-09T19:04:23.799Z,65.00
2019-01-09T19:06:53.093Z,65.50
2019-01-09T19:09:21.905Z,65.80
2019-01-09T19:11:50.907Z,66.30
2019-01-09T19:14:19.646Z,66.30
2019-01-09T19:16:48.651Z,65.30
2019-01-09T19:19:17.795Z,66.40
2019-01-09T19:21:47.335Z,66.10
2019-01-09T19:24:16.259Z,65.50
2019-01-09T19:26:45.326Z,65.20
2019-01-09T19:29:14.370Z,64.80
2019-01-09T19:31:43.467Z,64.00
2019-01-09T19:34:12.421Z,63.10
2019-01-09T19:36:41.680Z,64.90
2019-01-09T19:39:10.894Z,64.10
2019-01-09T19:41:41.330Z,63.80
2019-01-09T19:44:10.412Z,65.00
2019-01-09T19:46:40.125Z,64.90
2019-01-09T19:49:09.324Z,65.20
2019-01-09T19:51:38.686Z,64.00
2019-01-09T19:54:07.314Z,64.10
2019-01-09T19:56:36.972Z,65.40
2019-01-09T19:59:06.036Z,65.30
2019-01-09T20:01:36.638Z,65.70
2019-01-09T20:04:05.948Z,65.90
2019-01-09T20:06:34.994Z,65.90
2019-01-09T20:09:05.698Z,65.70
2019-01-09T20:11:34.430Z,64.70
2019-01-09T20:14:03.487Z,64.40
2019-01-09T20:16:32.616Z,65.40
2019-01-09T20:19:01.749Z,64.40
2019-01-09T20:21:30.841Z,59.10
2019-01-09T20:23:59.772Z,61.70
2019-01-09T20:26:28.777Z,62.20
2019-01-09T20:28:57.688Z,61.20
2019-01-09T20:31:26.836Z,60.70
2019-01-09T20:33:55.556Z,61.30
2019-01-09T20:36:24.255Z,61.40
2019-01-09T20:38:53.920Z,63.10
2019-01-09T20:41:22.967Z,63.00
2019-01-09T20:43:51.909Z,61.40
2019-01-09T20:46:23.190Z,62.60
2019-01-09T20:48:51.978Z,62.60
2019-01-09T20:51:21.334Z,63.10
2019-01-09T20:53:51.437Z,63.70
2019-01-09T20:56:20.416Z,65.30
2019-01-09T20:58:49.188Z,60.30
2019-01-09T21:01:18.491Z,61.00
2019-01-09T21:03:47.628Z,61.90
2019-01-09T21:06:17.106Z,60.00
2019-01-09T21:08:46.097Z,59.60
2019-01-09T21:11:15.144Z,56.90
2019-01-09T21:13:44.290Z,55.10
2019-01-09T21:16:13.549Z,55.30
2019-01-09T21:18:43.325Z,47.80
2019-01-09T21:21:12.191Z,51.40
2019-01-09T21:23:40.824Z,49.80
2019-01-09T21:26:09.360Z,48.30
2019-01-09T21:28:38.246Z,51.30
2019-01-09T21:31:07.415Z,46.20
2019-01-09T21:33:36.406Z,44.70
2019-01-09T21:36:06.545Z,45.90
2019-01-09T21:38:35.565Z,43.70
2019-01-09T21:41:04.714Z,42.90
2019-01-09T21:43:36.502Z,43.90
2019-01-09T21:46:06.410Z,36.60
2019-01-09T21:48:35.510Z,37.90
2019-01-09T21:51:05.321Z,34.80
2019-01-09T21:53:34.283Z,35.70
2019-01-09T21:56:03.204Z,34.40
2019-01-09T21:58:32.064Z,35.60
2019-01-09T22:01:01.051Z,36.50
2019-01-09T22:03:30.334Z,36.20
2019-01-09T22:05:59.236Z,32.90
2019-01-09T22:08:28.150Z,35.80
2019-01-09T22:10:57.125Z,33.00
2019-01-09T22:13:26.137Z,35.20
2019-01-09T22:15:54.814Z,34.60
2019-01-09T22:18:23.909Z,32.30
2019-01-09T22:20:53.100Z,33.40
2019-01-09T22:23:23.722Z,33.90
2019-01-09T22:25:52.902Z,33.10
2019-01-09T22:28:22.906Z,31.30
2019-01-09T22:30:51.927Z,31.60
2019-01-09T22:33:20.918Z,31.80
2019-01-09T22:35:50.163Z,32.00
2019-01-09T22:38:19.826Z,31.80
2019-01-09T22:40:48.724Z,31.90
2019-01-09T22:43:17.606Z,31.40
2019-01-09T22:45:46.903Z,31.40
2019-01-09T22:48:15.677Z,30.90
2019-01-09T22:50:44.642Z,30.00
2019-01-09T22:53:13.577Z,30.70
2019-01-09T22:55:42.554Z,31.10
2019-01-09T22:58:11.462Z,33.00
2019-01-09T23:00:49.004Z,33.00
2019-01-09T23:03:19.427Z,31.80
2019-01-09T23:05:48.469Z,32.70
2019-01-09T23:08:17.865Z,32.90
2019-01-09T23:10:54.266Z,33.60
2019-01-09T23:13:17.323Z,36.90
2019-01-09T23:15:46.279Z,38.80
2019-01-09T23:18:15.374Z,42.10
2019-01-09T23:20:44.491Z,44.20
2019-01-09T23:23:13.564Z,48.80
2019-01-09T23:25:42.724Z,54.90
2019-01-09T23:28:11.779Z,58.60
2019-01-09T23:30:41.362Z,60.40
2019-01-09T23:33:10.618Z,62.00
2019-01-09T23:35:39.365Z,63.10
2019-01-09T23:38:08.096Z,63.80
2019-01-09T23:40:36.763Z,65.10
2019-01-09T23:43:05.735Z,66.40
2019-01-09T23:45:35.105Z,68.30
2019-01-09T23:48:04.244Z,69.80
2019-01-09T23:50:32.988Z,70.80
2019-01-09T23:53:02.715Z,72.00
2019-01-09T23:55:31.789Z,72.70
2019-01-09T23:58:00.921Z,73.60
